Time;durP1;ratioP1;P1;durP2;ratioP2;P2;SDS_P1;SDS_P2;PMS_P1;PMS_P2;Temp;Humidity;BMP_temperature;BMP_pressure;BME280_temperature;BME280_humidity;BME280_pressure;Samples;Min_cycle;Max_cycle;Signal;HPM_P1;HPM_P2
2023/04/07 00:00:55;;;;;;;;;1.25;0.75;;;;;;;;6335387;22;45251;-78
2023/04/07 00:03:20;;;;;;;;;0.00;0.00;;;;;;;;6335671;22;46214;-78
2023/04/07 00:05:45;;;;;;;;;3.50;1.75;;;;;;;;6336252;22;45217;-79
2023/04/07 00:08:10;;;;;;;;;1.00;1.00;;;;;;;;6336412;22;45351;-79
2023/04/07 00:10:36;;;;;;;;;0.33;0.33;;;;;;;;6335846;22;45408;-78
2023/04/07 00:13:01;;;;;;;;;4.33;1.00;;;;;;;;6336221;22;46342;-78
2023/04/07 00:15:26;;;;;;;;;0.00;0.00;;;;;;;;6335586;22;45198;-78
2023/04/07 00:17:51;;;;;;;;;2.00;1.00;;;;;;;;6336185;22;45238;-79
2023/04/07 00:20:17;;;;;;;;;2.00;0.00;;;;;;;;6336353;22;45427;-79
2023/04/07 00:22:42;;;;;;;;;1.00;0.33;;;;;;;;6336011;22;46375;-79
2023/04/07 00:25:07;;;;;;;;;4.33;1.00;;;;;;;;6336029;22;45155;-79
2023/04/07 00:27:32;;;;;;;;;2.00;1.00;;;;;;;;6336098;22;45260;-79
2023/04/07 00:29:58;;;;;;;;;1.00;1.00;;;;;;;;6335497;22;45219;-79
2023/04/07 00:32:23;;;;;;;;;1.00;1.00;;;;;;;;6335901;22;45360;-79
2023/04/07 00:34:48;;;;;;;;;2.67;1.00;;;;;;;;6335914;22;45506;-79
2023/04/07 00:37:13;;;;;;;;;2.00;0.33;;;;;;;;6336194;22;45216;-79
2023/04/07 00:39:38;;;;;;;;;2.00;1.00;;;;;;;;6336198;22;45577;-79
2023/04/07 00:42:05;;;;;;;;;0.00;0.00;;;;;;;;6335681;22;45218;-79
2023/04/07 00:44:30;;;;;;;;;5.50;1.00;;;;;;;;6334941;22;45222;-78
2023/04/07 00:46:56;;;;;;;;;1.67;1.00;;;;;;;;6336062;22;45303;-79
2023/04/07 00:49:21;;;;;;;;;3.50;1.00;;;;;;;;6335459;22;45405;-78
2023/04/07 00:51:47;;;;;;;;;5.00;1.67;;;;;;;;6335872;22;46156;-79
2023/04/07 00:54:12;;;;;;;;;0.00;0.00;;;;;;;;6335431;22;45274;-79
2023/04/07 00:56:37;;;;;;;;;0.25;0.25;;;;;;;;6335803;22;45370;-79
2023/04/07 00:59:05;;;;;;;;;2.00;1.00;;;;;;;;6335651;22;45252;-79
2023/04/07 01:01:51;;;;;;;;;0.75;0.75;;;;;;;;6335548;22;45243;-79
2023/04/07 01:04:27;;;;;;;;;2.75;1.00;;;;;;;;6312845;22;45176;-79
2023/04/07 01:06:55;;;;;;;;;3.00;1.75;;;;;;;;6335219;22;45477;-79
2023/04/07 01:09:27;;;;;;;;;0.75;0.75;;;;;;;;6335371;22;45334;-79
2023/04/07 01:12:04;;;;;;;;;0.25;0.25;;;;;;;;6334957;22;46556;-79
2023/04/07 01:14:32;;;;;;;;;1.75;1.00;;;;;;;;6334768;22;45212;-79
2023/04/07 01:17:00;;;;;;;;;1.75;1.75;;;;;;;;6335776;22;45314;-79
2023/04/07 01:19:28;;;;;;;;;1.75;1.00;;;;;;;;6335639;22;45380;-79
2023/04/07 01:21:55;;;;;;;;;2.00;1.00;;;;;;;;6335352;22;45247;-79
2023/04/07 01:24:46;;;;;;;;;2.75;1.00;;;;;;;;6334958;22;45257;-79
2023/04/07 01:27:29;;;;;;;;;5.00;0.00;;;;;;;;6328863;22;45601;-79
2023/04/07 01:29:55;;;;;;;;;3.00;1.00;;;;;;;;6335581;22;45261;-79
2023/04/07 01:32:20;;;;;;;;;6.00;1.00;;;;;;;;6334813;22;45279;-78
2023/04/07 01:34:51;;;;;;;;;2.00;1.00;;;;;;;;6334782;22;45344;-79
2023/04/07 01:37:16;;;;;;;;;0.50;0.00;;;;;;;;6335586;22;45516;-79
2023/04/07 01:39:41;;;;;;;;;0.25;0.25;;;;;;;;6335580;22;45263;-79
2023/04/07 01:42:07;;;;;;;;;1.00;1.00;;;;;;;;6335703;22;46413;-79
2023/04/07 01:44:33;;;;;;;;;0.75;0.75;;;;;;;;6336390;22;45670;-79
2023/04/07 01:46:58;;;;;;;;;1.00;1.00;;;;;;;;6337305;22;45363;-79
2023/04/07 01:49:25;;;;;;;;;1.00;1.00;;;;;;;;6337071;22;45263;-79
2023/04/07 01:51:50;;;;;;;;;3.00;0.75;;;;;;;;6336742;22;45509;-79
2023/04/07 01:54:16;;;;;;;;;2.00;1.00;;;;;;;;6336567;22;45362;-79
2023/04/07 01:56:42;;;;;;;;;0.75;0.00;;;;;;;;6336177;22;45228;-79
2023/04/07 01:59:07;;;;;;;;;5.75;1.25;;;;;;;;6337138;22;45513;-79
2023/04/07 02:01:32;;;;;;;;;0.67;0.67;;;;;;;;6337228;22;45418;-79
2023/04/07 02:04:11;;;;;;;;;5.00;1.00;;;;;;;;6336300;22;45224;-79
2023/04/07 02:06:51;;;;;;;;;3.00;2.00;;;;;;;;6336594;22;45270;-79
2023/04/07 02:09:19;;;;;;;;;1.50;0.50;;;;;;;;6336890;22;45182;-79
2023/04/07 02:11:44;;;;;;;;;0.00;0.00;;;;;;;;6335924;22;46854;-79
2023/04/07 02:14:10;;;;;;;;;0.75;0.25;;;;;;;;6336018;22;45360;-79
2023/04/07 02:16:36;;;;;;;;;3.00;1.00;;;;;;;;6336981;22;45306;-79
2023/04/07 02:19:02;;;;;;;;;3.00;0.75;;;;;;;;6336895;22;45544;-79
2023/04/07 02:21:29;;;;;;;;;1.00;1.00;;;;;;;;6336665;22;46246;-79
2023/04/07 02:23:54;;;;;;;;;1.00;1.00;;;;;;;;6336302;22;45242;-79
2023/04/07 02:26:20;;;;;;;;;2.75;0.25;;;;;;;;6335935;22;45595;-79
2023/04/07 02:28:45;;;;;;;;;2.75;1.00;;;;;;;;6336385;22;45257;-79
2023/04/07 02:31:12;;;;;;;;;2.00;2.00;;;;;;;;6336540;22;45292;-79
2023/04/07 02:33:37;;;;;;;;;1.25;1.25;;;;;;;;6336198;22;45614;-78
2023/04/07 02:36:02;;;;;;;;;2.00;1.00;;;;;;;;6336782;22;45244;-79
2023/04/07 02:38:27;;;;;;;;;3.00;1.00;;;;;;;;6336775;22;45118;-79
2023/04/07 02:40:54;;;;;;;;;2.33;0.00;;;;;;;;6335556;22;46524;-79
2023/04/07 02:43:20;;;;;;;;;4.50;1.00;;;;;;;;6336147;22;45198;-79
2023/04/07 02:45:45;;;;;;;;;4.25;1.00;;;;;;;;6336280;22;45290;-79
2023/04/07 02:48:10;;;;;;;;;2.00;0.33;;;;;;;;6336421;22;45217;-79
2023/04/07 02:50:35;;;;;;;;;3.00;1.00;;;;;;;;6336673;22;45418;-78
2023/04/07 02:53:01;;;;;;;;;4.00;1.00;;;;;;;;6336651;22;45295;-79
2023/04/07 02:55:26;;;;;;;;;2.33;1.67;;;;;;;;6336193;22;47072;-79
2023/04/07 02:57:51;;;;;;;;;5.00;1.00;;;;;;;;6336753;22;45493;-79
2023/04/07 03:00:16;;;;;;;;;2.00;2.00;;;;;;;;6335890;22;45308;-78
2023/04/07 03:02:41;;;;;;;;;2.67;1.67;;;;;;;;6336182;22;45539;-79
2023/04/07 03:05:07;;;;;;;;;5.00;1.00;;;;;;;;6336948;22;45198;-79
2023/04/07 03:07:32;;;;;;;;;1.50;1.50;;;;;;;;6336237;22;45414;-79
2023/04/07 03:09:57;;;;;;;;;2.00;2.00;;;;;;;;6335461;22;45861;-79
2023/04/07 03:12:22;;;;;;;;;6.00;1.33;;;;;;;;6336100;22;45319;-78
2023/04/07 03:14:48;;;;;;;;;2.00;2.00;;;;;;;;6334562;22;45279;-79
2023/04/07 03:17:13;;;;;;;;;3.00;2.25;;;;;;;;6336669;22;45330;-78
2023/04/07 03:19:38;;;;;;;;;1.00;1.00;;;;;;;;6336313;22;45462;-78
2023/04/07 03:22:03;;;;;;;;;0.67;0.00;;;;;;;;6336039;22;45435;-79
2023/04/07 03:24:28;;;;;;;;;5.00;2.00;;;;;;;;6335739;22;45347;-78
2023/04/07 03:26:54;;;;;;;;;3.00;1.33;;;;;;;;6336415;22;45295;-79
2023/04/07 03:29:20;;;;;;;;;4.50;1.00;;;;;;;;6335752;22;47049;-78
2023/04/07 03:31:45;;;;;;;;;3.00;1.00;;;;;;;;6335853;22;45209;-79
2023/04/07 03:34:10;;;;;;;;;6.50;2.00;;;;;;;;6336265;22;45204;-79
2023/04/07 03:36:35;;;;;;;;;1.00;1.00;;;;;;;;6336067;22;45467;-79
2023/04/07 03:39:01;;;;;;;;;8.00;2.00;;;;;;;;6335745;22;46260;-79
2023/04/07 03:41:26;;;;;;;;;4.33;3.00;;;;;;;;6336211;22;45222;-79
2023/04/07 03:43:51;;;;;;;;;4.00;1.67;;;;;;;;6336637;22;45237;-79
2023/04/07 03:46:18;;;;;;;;;5.00;2.00;;;;;;;;6335950;22;45178;-78
2023/04/07 03:48:43;;;;;;;;;6.25;2.75;;;;;;;;6336145;22;46553;-78
2023/04/07 03:51:08;;;;;;;;;1.33;1.33;;;;;;;;6334227;22;45533;-79
2023/04/07 03:53:33;;;;;;;;;2.00;1.00;;;;;;;;6336114;22;45333;-79
2023/04/07 03:55:58;;;;;;;;;2.00;2.00;;;;;;;;6335769;22;45305;-78
2023/04/07 03:58:24;;;;;;;;;1.00;0.00;;;;;;;;6336222;22;46358;-79
2023/04/07 04:00:49;;;;;;;;;2.00;2.00;;;;;;;;6336288;22;45158;-78
2023/04/07 04:03:14;;;;;;;;;1.67;1.00;;;;;;;;6336324;22;45164;-79
2023/04/07 04:05:40;;;;;;;;;2.75;1.00;;;;;;;;6335349;22;45450;-79
2023/04/07 04:08:05;;;;;;;;;1.67;1.00;;;;;;;;6335349;22;45377;-79
2023/04/07 04:10:30;;;;;;;;;2.00;1.00;;;;;;;;6336099;22;45267;-78
2023/04/07 04:12:59;;;;;;;;;6.00;2.00;;;;;;;;6336331;22;45405;-78
2023/04/07 04:15:24;;;;;;;;;2.50;1.00;;;;;;;;6336131;22;45290;-79
2023/04/07 04:17:49;;;;;;;;;2.00;2.00;;;;;;;;6336178;22;46060;-78
2023/04/07 04:20:14;;;;;;;;;4.33;3.00;;;;;;;;6336229;22;45362;-79
2023/04/07 04:22:40;;;;;;;;;1.00;1.00;;;;;;;;6335395;22;45450;-79
2023/04/07 04:25:05;;;;;;;;;5.00;1.75;;;;;;;;6336266;22;45563;-79
2023/04/07 04:27:30;;;;;;;;;6.00;2.00;;;;;;;;6335963;22;45338;-79
2023/04/07 04:29:56;;;;;;;;;4.00;2.00;;;;;;;;6335527;22;45296;-79
2023/04/07 04:32:21;;;;;;;;;2.33;2.33;;;;;;;;6335571;22;45295;-79
2023/04/07 04:34:46;;;;;;;;;6.33;3.00;;;;;;;;6336063;22;45150;-79
2023/04/07 04:37:11;;;;;;;;;5.33;2.67;;;;;;;;6335418;22;46395;-79
2023/04/07 04:39:36;;;;;;;;;3.50;2.00;;;;;;;;6335991;22;45236;-79
2023/04/07 04:42:02;;;;;;;;;3.00;2.33;;;;;;;;6336294;22;45289;-79
2023/04/07 04:44:29;;;;;;;;;3.50;2.00;;;;;;;;6336148;22;45259;-79
2023/04/07 04:46:54;;;;;;;;;7.00;2.50;;;;;;;;6335531;22;46034;-79
2023/04/07 04:49:19;;;;;;;;;2.00;1.33;;;;;;;;6335918;22;45399;-79
2023/04/07 04:51:44;;;;;;;;;4.33;1.00;;;;;;;;6335513;22;45326;-79
2023/04/07 04:54:10;;;;;;;;;6.25;2.75;;;;;;;;6335853;22;45375;-78
2023/04/07 04:56:35;;;;;;;;;3.25;2.00;;;;;;;;6335537;22;46805;-79
2023/04/07 04:59:01;;;;;;;;;2.00;2.00;;;;;;;;6335984;22;45252;-79
2023/04/07 05:01:26;;;;;;;;;2.25;1.25;;;;;;;;6336039;22;45198;-79
2023/04/07 05:03:51;;;;;;;;;4.33;2.00;;;;;;;;6335868;22;45225;-79
2023/04/07 05:06:16;;;;;;;;;10.67;3.33;;;;;;;;6335138;22;46272;-79
2023/04/07 05:08:42;;;;;;;;;2.00;2.00;;;;;;;;6335814;22;45576;-79
2023/04/07 05:11:07;;;;;;;;;3.00;2.33;;;;;;;;6335497;22;45309;-79
2023/04/07 05:13:33;;;;;;;;;4.25;2.00;;;;;;;;6335386;22;45330;-78
2023/04/07 05:15:58;;;;;;;;;6.00;5.00;;;;;;;;6334355;22;45318;-78
2023/04/07 05:18:23;;;;;;;;;3.67;1.33;;;;;;;;6336770;22;45324;-80
2023/04/07 05:20:48;;;;;;;;;6.00;2.00;;;;;;;;6336640;22;45295;-81
2023/04/07 05:23:14;;;;;;;;;4.00;2.75;;;;;;;;6336842;22;45329;-81
2023/04/07 05:25:39;;;;;;;;;6.75;5.00;;;;;;;;6337114;22;45262;-80
2023/04/07 05:28:05;;;;;;;;;6.33;3.00;;;;;;;;6336527;22;45318;-80
2023/04/07 05:30:30;;;;;;;;;7.75;2.50;;;;;;;;6336828;22;45184;-80
2023/04/07 05:32:55;;;;;;;;;6.00;3.33;;;;;;;;6337248;22;45284;-79
2023/04/07 05:35:20;;;;;;;;;6.00;3.67;;;;;;;;6335883;22;47148;-80
2023/04/07 05:37:46;;;;;;;;;2.67;2.00;;;;;;;;6336895;22;45241;-81
2023/04/07 05:40:11;;;;;;;;;2.00;2.00;;;;;;;;6336460;22;45334;-80
2023/04/07 05:42:36;;;;;;;;;5.50;2.75;;;;;;;;6337086;22;45248;-80
2023/04/07 05:45:02;;;;;;;;;3.33;2.67;;;;;;;;6336831;22;45302;-80
2023/04/07 05:47:27;;;;;;;;;5.50;2.50;;;;;;;;6336280;22;45288;-80
2023/04/07 05:49:52;;;;;;;;;4.00;4.00;;;;;;;;6336110;22;45224;-80
2023/04/07 05:52:17;;;;;;;;;4.33;4.33;;;;;;;;6336927;22;45180;-81
2023/04/07 05:54:43;;;;;;;;;5.33;2.67;;;;;;;;6336546;22;45286;-81
2023/04/07 05:57:08;;;;;;;;;5.75;2.25;;;;;;;;6337049;22;45250;-80
2023/04/07 05:59:34;;;;;;;;;6.00;2.00;;;;;;;;6336977;22;45260;-80
2023/04/07 06:01:59;;;;;;;;;5.25;4.00;;;;;;;;6336639;22;45189;-81
2023/04/07 06:04:24;;;;;;;;;2.25;2.25;;;;;;;;6335939;22;47304;-81
2023/04/07 06:06:51;;;;;;;;;6.00;3.75;;;;;;;;6336726;22;45263;-81
2023/04/07 06:09:16;;;;;;;;;5.50;3.50;;;;;;;;6336596;22;45233;-81
2023/04/07 06:11:41;;;;;;;;;5.00;4.00;;;;;;;;6336967;22;45244;-81
2023/04/07 06:14:06;;;;;;;;;5.00;5.00;;;;;;;;6336156;22;46240;-81
2023/04/07 06:16:32;;;;;;;;;9.33;2.00;;;;;;;;6336720;22;45300;-80
2023/04/07 06:18:57;;;;;;;;;7.33;3.33;;;;;;;;6336831;22;45295;-81
2023/04/07 06:21:22;;;;;;;;;5.33;3.33;;;;;;;;6336410;22;45444;-81
2023/04/07 06:23:48;;;;;;;;;11.25;5.00;;;;;;;;6336055;22;46997;-80
2023/04/07 06:26:13;;;;;;;;;5.33;5.00;;;;;;;;6336197;22;45285;-80
2023/04/07 06:28:38;;;;;;;;;5.33;4.67;;;;;;;;6336170;22;45353;-81
2023/04/07 06:31:04;;;;;;;;;6.75;3.50;;;;;;;;6335999;22;45248;-81
2023/04/07 06:33:29;;;;;;;;;9.00;3.75;;;;;;;;6335708;22;46870;-81
2023/04/07 06:35:55;;;;;;;;;6.75;5.00;;;;;;;;6336065;22;45312;-81
2023/04/07 06:38:20;;;;;;;;;8.50;5.00;;;;;;;;6336439;22;45216;-81
2023/04/07 06:40:45;;;;;;;;;7.00;4.00;;;;;;;;6336353;22;45433;-81
2023/04/07 06:43:10;;;;;;;;;7.33;5.00;;;;;;;;6336671;22;46425;-80
2023/04/07 06:45:36;;;;;;;;;7.33;5.00;;;;;;;;6336458;22;45326;-80
2023/04/07 06:48:01;;;;;;;;;9.33;5.00;;;;;;;;6336529;22;45348;-81
2023/04/07 06:50:26;;;;;;;;;9.33;5.00;;;;;;;;6336644;22;45395;-80
2023/04/07 06:52:51;;;;;;;;;9.00;7.00;;;;;;;;6336418;22;45467;-80
2023/04/07 06:55:16;;;;;;;;;2.00;2.00;;;;;;;;6336519;22;45330;-80
2023/04/07 06:57:42;;;;;;;;;9.33;6.00;;;;;;;;6336390;22;45317;-82
2023/04/07 07:00:07;;;;;;;;;9.33;5.00;;;;;;;;6335984;22;45326;-81
2023/04/07 07:02:33;;;;;;;;;9.00;5.00;;;;;;;;6335482;22;46153;-82
2023/04/07 07:04:58;;;;;;;;;10.67;6.00;;;;;;;;6336558;22;45178;-82
2023/04/07 07:07:24;;;;;;;;;6.00;5.00;;;;;;;;6335971;22;45323;-82
2023/04/07 07:09:50;;;;;;;;;11.00;5.50;;;;;;;;6336228;22;45181;-81
2023/04/07 07:12:16;;;;;;;;;13.25;6.50;;;;;;;;6335903;22;46077;-81
2023/04/07 07:14:41;;;;;;;;;10.00;6.00;;;;;;;;6336018;22;45277;-82
2023/04/07 07:17:07;;;;;;;;;8.67;6.00;;;;;;;;6335861;22;45287;-82
2023/04/07 07:19:32;;;;;;;;;13.00;10.00;;;;;;;;6336171;22;45969;-82
2023/04/07 07:21:57;;;;;;;;;6.00;4.33;;;;;;;;6336416;22;45453;-83
2023/04/07 07:24:22;;;;;;;;;10.00;6.00;;;;;;;;6336323;22;45269;-82
2023/04/07 07:26:47;;;;;;;;;9.33;8.33;;;;;;;;6336846;22;45310;-81
2023/04/07 07:29:12;;;;;;;;;9.33;5.33;;;;;;;;6336128;22;45414;-81
2023/04/07 07:31:38;;;;;;;;;6.00;6.00;;;;;;;;6335989;22;45380;-81
2023/04/07 07:34:03;;;;;;;;;6.33;6.00;;;;;;;;6335842;22;45413;-81
2023/04/07 07:36:28;;;;;;;;;9.00;7.67;;;;;;;;6335576;22;45463;-82
2023/04/07 07:38:53;;;;;;;;;6.33;5.00;;;;;;;;6335702;22;45233;-82
2023/04/07 07:41:18;;;;;;;;;7.00;5.00;;;;;;;;6336377;22;45371;-82
2023/04/07 07:43:44;;;;;;;;;6.33;6.00;;;;;;;;6336733;22;45331;-82
2023/04/07 07:46:09;;;;;;;;;6.50;6.00;;;;;;;;6335797;22;45257;-82
2023/04/07 07:48:34;;;;;;;;;9.67;6.33;;;;;;;;6334467;22;45513;-82
2023/04/07 07:50:59;;;;;;;;;5.67;5.67;;;;;;;;6334126;22;47615;-81
2023/04/07 07:53:25;;;;;;;;;13.00;5.75;;;;;;;;6336394;22;45347;-82
2023/04/07 07:55:50;;;;;;;;;9.33;6.00;;;;;;;;6336684;22;45217;-82
2023/04/07 07:58:15;;;;;;;;;11.33;7.00;;;;;;;;6336055;22;45482;-81
2023/04/07 08:00:40;;;;;;;;;8.33;6.67;;;;;;;;6335924;22;45369;-82
2023/04/07 08:03:05;;;;;;;;;9.67;5.67;;;;;;;;6337976;22;45267;-82
2023/04/07 08:05:31;;;;;;;;;16.00;9.75;;;;;;;;6337128;22;45266;-82
2023/04/07 08:07:56;;;;;;;;;8.33;6.67;;;;;;;;6336294;22;45314;-82
2023/04/07 08:10:23;;;;;;;;;9.00;6.25;;;;;;;;6337001;22;47135;-82
2023/04/07 08:12:49;;;;;;;;;11.25;7.50;;;;;;;;6336642;22;45771;-82
2023/04/07 08:15:14;;;;;;;;;11.00;6.33;;;;;;;;6335828;22;45111;-82
2023/04/07 08:17:39;;;;;;;;;5.50;5.50;;;;;;;;6336430;22;45218;-82
2023/04/07 08:20:05;;;;;;;;;8.00;6.67;;;;;;;;6335920;22;46427;-82
2023/04/07 08:22:30;;;;;;;;;8.25;6.25;;;;;;;;6336621;22;45246;-82
2023/04/07 08:24:56;;;;;;;;;8.00;6.33;;;;;;;;6336579;22;45368;-82
2023/04/07 08:27:21;;;;;;;;;10.67;7.00;;;;;;;;6336303;22;45300;-82
2023/04/07 08:29:57;;;;;;;;;14.67;5.00;;;;;;;;6335298;22;46075;-82
2023/04/07 08:32:22;;;;;;;;;13.75;9.50;;;;;;;;6335557;22;45716;-82
2023/04/07 08:34:47;;;;;;;;;10.67;7.67;;;;;;;;6336057;22;45347;-82
2023/04/07 08:37:13;;;;;;;;;14.00;9.67;;;;;;;;6335812;22;45443;-82
2023/04/07 08:39:38;;;;;;;;;11.00;7.00;;;;;;;;6335979;22;45379;-82
2023/04/07 08:42:03;;;;;;;;;13.33;6.00;;;;;;;;6335136;22;45460;-82
2023/04/07 08:44:29;;;;;;;;;10.50;7.00;;;;;;;;6307790;22;45302;-82
2023/04/07 08:46:56;;;;;;;;;7.50;7.00;;;;;;;;6336033;22;45400;-82
2023/04/07 08:49:22;;;;;;;;;10.75;7.25;;;;;;;;6335283;22;46734;-82
2023/04/07 08:51:49;;;;;;;;;2.25;1.25;;;;;;;;6337007;22;45244;-82
2023/04/07 08:54:17;;;;;;;;;9.50;5.00;;;;;;;;6337012;22;45238;-82
2023/04/07 08:56:42;;;;;;;;;8.75;7.25;;;;;;;;6336814;22;45394;-82
2023/04/07 08:59:10;;;;;;;;;7.50;6.50;;;;;;;;6336723;22;46056;-82
2023/04/07 09:01:35;;;;;;;;;8.50;7.00;;;;;;;;6336822;22;45222;-82
2023/04/07 09:04:01;;;;;;;;;6.00;6.00;;;;;;;;6336799;22;45277;-82
2023/04/07 09:06:28;;;;;;;;;10.00;6.50;;;;;;;;6337380;22;45246;-82
2023/04/07 09:08:53;;;;;;;;;14.75;11.00;;;;;;;;6336699;22;46992;-82
2023/04/07 09:11:19;;;;;;;;;12.00;7.33;;;;;;;;6336834;22;45332;-82
2023/04/07 09:13:44;;;;;;;;;12.75;8.00;;;;;;;;6337415;22;45164;-82
2023/04/07 09:16:10;;;;;;;;;7.50;6.25;;;;;;;;6336740;22;45225;-82
2023/04/07 09:18:35;;;;;;;;;10.75;8.75;;;;;;;;6336493;22;46141;-82
2023/04/07 09:21:02;;;;;;;;;12.67;7.33;;;;;;;;6336586;22;45363;-82
2023/04/07 09:23:30;;;;;;;;;11.50;7.00;;;;;;;;6335352;22;45251;-81
2023/04/07 09:25:58;;;;;;;;;12.00;9.25;;;;;;;;6334630;22;45393;-82
2023/04/07 09:28:24;;;;;;;;;12.00;8.25;;;;;;;;6336598;22;47111;-83
2023/04/07 09:30:52;;;;;;;;;14.00;8.00;;;;;;;;6336432;22;45260;-83
2023/04/07 09:33:25;;;;;;;;;8.00;7.00;;;;;;;;6336810;22;45232;-83
2023/04/07 09:35:52;;;;;;;;;7.50;6.50;;;;;;;;6337429;22;45372;-83
2023/04/07 09:38:17;;;;;;;;;3.75;2.75;;;;;;;;6334941;22;47892;-83
2023/04/07 09:40:42;;;;;;;;;9.00;8.00;;;;;;;;6336581;22;45287;-83
2023/04/07 09:43:13;;;;;;;;;16.33;6.33;;;;;;;;6336998;22;45326;-83
2023/04/07 09:45:39;;;;;;;;;9.75;6.50;;;;;;;;6337220;22;45396;-83
2023/04/07 09:48:05;;;;;;;;;13.25;6.75;;;;;;;;6336746;22;46063;-83
2023/04/07 09:50:32;;;;;;;;;4.50;3.00;;;;;;;;6336494;22;45399;-84
2023/04/07 09:52:58;;;;;;;;;5.00;5.00;;;;;;;;6335856;22;45291;-83
2023/04/07 09:55:23;;;;;;;;;8.00;7.00;;;;;;;;6336542;22;45333;-82
2023/04/07 09:57:52;;;;;;;;;8.00;6.00;;;;;;;;6336798;22;46257;-82
2023/04/07 10:00:17;;;;;;;;;7.50;4.00;;;;;;;;6336508;22;45225;-82
2023/04/07 10:02:42;;;;;;;;;5.75;3.00;;;;;;;;6336561;22;45257;-82
2023/04/07 10:05:09;;;;;;;;;3.00;3.00;;;;;;;;6336599;22;45260;-82
2023/04/07 10:07:34;;;;;;;;;4.00;4.00;;;;;;;;6336864;22;46229;-85
2023/04/07 10:10:00;;;;;;;;;6.00;3.00;;;;;;;;6335872;22;45249;-82
2023/04/07 10:12:25;;;;;;;;;7.75;5.75;;;;;;;;6336633;22;45380;-82
2023/04/07 10:14:51;;;;;;;;;5.25;5.25;;;;;;;;6336216;22;45406;-82
2023/04/07 10:17:18;;;;;;;;;8.00;3.33;;;;;;;;6336694;22;45275;-81
2023/04/07 10:19:44;;;;;;;;;7.75;5.00;;;;;;;;6336238;22;45753;-81
2023/04/07 10:22:10;;;;;;;;;8.00;4.00;;;;;;;;6336618;22;45371;-81
2023/04/07 10:24:39;;;;;;;;;6.25;3.50;;;;;;;;6336522;22;45246;-81
2023/04/07 10:27:08;;;;;;;;;8.00;3.00;;;;;;;;6336044;22;46207;-81
2023/04/07 10:29:39;;;;;;;;;4.25;3.50;;;;;;;;6336492;22;45781;-82
2023/04/07 10:32:04;;;;;;;;;1.25;1.25;;;;;;;;6336644;22;45235;-81
2023/04/07 10:34:48;;;;;;;;;3.00;3.00;;;;;;;;6336276;22;45490;-81
2023/04/07 10:37:16;;;;;;;;;4.75;2.75;;;;;;;;6336599;22;45295;-81
2023/04/07 10:39:42;;;;;;;;;4.00;3.50;;;;;;;;6335734;22;45728;-81
2023/04/07 10:42:27;;;;;;;;;4.50;3.25;;;;;;;;6336744;22;45223;-81
2023/04/07 10:44:52;;;;;;;;;3.00;1.75;;;;;;;;6336276;22;45353;-81
2023/04/07 10:47:18;;;;;;;;;4.67;2.00;;;;;;;;6336501;22;45405;-81
2023/04/07 10:50:03;;;;;;;;;1.75;1.75;;;;;;;;6336131;22;45300;-81
2023/04/07 10:52:28;;;;;;;;;3.00;3.00;;;;;;;;6333125;22;45364;-81
2023/04/07 10:55:12;;;;;;;;;3.67;3.33;;;;;;;;6335125;22;45699;-81
2023/04/07 10:57:37;;;;;;;;;3.75;3.75;;;;;;;;6335686;22;47244;-81
2023/04/07 11:00:08;;;;;;;;;2.00;2.00;;;;;;;;6335553;22;45317;-82
2023/04/07 11:02:34;;;;;;;;;3.00;2.00;;;;;;;;6336896;22;45232;-81
2023/04/07 11:05:00;;;;;;;;;3.00;2.00;;;;;;;;6333043;22;45532;-81
2023/04/07 11:07:44;;;;;;;;;3.50;1.00;;;;;;;;6334461;22;45987;-82
2023/04/07 11:10:14;;;;;;;;;1.50;1.25;;;;;;;;6334641;22;45639;-81
2023/04/07 11:12:40;;;;;;;;;2.00;1.00;;;;;;;;6335631;22;45371;-82
2023/04/07 11:15:18;;;;;;;;;1.75;1.00;;;;;;;;6335310;22;45452;-81
2023/04/07 11:17:44;;;;;;;;;2.00;1.00;;;;;;;;6334984;22;45581;-81
2023/04/07 11:20:09;;;;;;;;;1.33;1.33;;;;;;;;6335799;22;45235;-81
2023/04/07 11:22:36;;;;;;;;;2.25;1.50;;;;;;;;6334921;22;45328;-81
2023/04/07 11:25:01;;;;;;;;;2.75;1.00;;;;;;;;6335544;22;45265;-82
2023/04/07 11:27:27;;;;;;;;;6.00;3.75;;;;;;;;6335502;22;45393;-81
2023/04/07 11:29:53;;;;;;;;;1.75;1.75;;;;;;;;6335127;22;45851;-81
2023/04/07 11:32:21;;;;;;;;;4.00;2.00;;;;;;;;6335691;22;45243;-82
2023/04/07 11:34:46;;;;;;;;;0.00;0.00;;;;;;;;6335695;22;45231;-81
2023/04/07 11:37:18;;;;;;;;;1.00;1.00;;;;;;;;6334487;22;45336;-81
2023/04/07 11:39:46;;;;;;;;;4.00;2.00;;;;;;;;6335263;22;45659;-81
2023/04/07 11:42:12;;;;;;;;;1.00;1.00;;;;;;;;6335418;22;45331;-81
2023/04/07 11:44:46;;;;;;;;;1.00;1.00;;;;;;;;6335643;22;45277;-81
2023/04/07 11:47:11;;;;;;;;;0.00;0.00;;;;;;;;6335649;22;45357;-82
2023/04/07 11:49:43;;;;;;;;;1.00;1.00;;;;;;;;6335435;22;45249;-81
2023/04/07 11:52:09;;;;;;;;;2.00;1.00;;;;;;;;6334844;22;45241;-82
2023/04/07 11:54:41;;;;;;;;;1.50;1.00;;;;;;;;6335092;22;45419;-81
2023/04/07 11:57:09;;;;;;;;;1.00;1.00;;;;;;;;6335017;22;46495;-81
2023/04/07 11:59:34;;;;;;;;;4.50;1.50;;;;;;;;6333852;22;45304;-81
2023/04/07 12:01:59;;;;;;;;;3.00;2.00;;;;;;;;6335060;22;45279;-82
2023/04/07 12:04:24;;;;;;;;;4.00;2.00;;;;;;;;6335647;22;45474;-82
2023/04/07 12:06:50;;;;;;;;;1.00;1.00;;;;;;;;6334800;22;45474;-81
2023/04/07 12:09:26;;;;;;;;;1.00;1.00;;;;;;;;6334822;22;45372;-80
2023/04/07 12:11:51;;;;;;;;;1.75;0.25;;;;;;;;6335328;22;45488;-81
2023/04/07 12:14:17;;;;;;;;;3.00;1.00;;;;;;;;6335191;22;45475;-81
2023/04/07 12:16:42;;;;;;;;;3.67;1.00;;;;;;;;6335494;22;45591;-82
2023/04/07 12:19:07;;;;;;;;;1.00;1.00;;;;;;;;6335608;22;45340;-82
2023/04/07 12:21:32;;;;;;;;;1.00;0.75;;;;;;;;6334819;22;45337;-82
2023/04/07 12:23:58;;;;;;;;;2.00;2.00;;;;;;;;6334996;22;45223;-82
2023/04/07 12:26:24;;;;;;;;;2.00;1.00;;;;;;;;6334720;22;46201;-82
2023/04/07 12:28:49;;;;;;;;;1.00;1.00;;;;;;;;6334754;22;45715;-82
2023/04/07 12:31:14;;;;;;;;;1.67;1.00;;;;;;;;6335903;22;45373;-81
2023/04/07 12:33:40;;;;;;;;;2.50;1.25;;;;;;;;6334865;22;45212;-81
2023/04/07 12:36:05;;;;;;;;;2.00;2.00;;;;;;;;6334858;22;45271;-81
2023/04/07 12:38:31;;;;;;;;;1.00;1.00;;;;;;;;6335546;22;45424;-81
2023/04/07 12:41:02;;;;;;;;;1.33;1.00;;;;;;;;6333452;22;45313;-82
2023/04/07 12:43:27;;;;;;;;;2.50;1.00;;;;;;;;6334733;22;45319;-82
2023/04/07 12:45:52;;;;;;;;;0.00;0.00;;;;;;;;6335116;22;45269;-82
2023/04/07 12:48:17;;;;;;;;;1.50;1.50;;;;;;;;6334640;22;45201;-82
2023/04/07 12:50:43;;;;;;;;;1.00;1.00;;;;;;;;6334260;22;45272;-82
2023/04/07 12:53:08;;;;;;;;;1.00;1.00;;;;;;;;6335180;22;45275;-82
2023/04/07 12:55:34;;;;;;;;;1.00;1.00;;;;;;;;6334929;22;45285;-82
2023/04/07 12:57:59;;;;;;;;;0.00;0.00;;;;;;;;6334302;22;45414;-82
2023/04/07 13:00:25;;;;;;;;;0.75;0.00;;;;;;;;6335285;22;45324;-82
2023/04/07 13:02:50;;;;;;;;;0.50;0.50;;;;;;;;6334439;22;45222;-82
2023/04/07 13:05:15;;;;;;;;;1.33;1.00;;;;;;;;6334702;22;45296;-82
2023/04/07 13:07:40;;;;;;;;;1.50;1.00;;;;;;;;6335065;22;45562;-82
2023/04/07 13:10:07;;;;;;;;;2.33;0.67;;;;;;;;6334847;22;45397;-82
2023/04/07 13:12:32;;;;;;;;;0.75;0.75;;;;;;;;6334556;22;45581;-82
2023/04/07 13:14:57;;;;;;;;;5.33;1.33;;;;;;;;6334839;22;45415;-82
2023/04/07 13:17:22;;;;;;;;;2.00;0.33;;;;;;;;6334581;22;45400;-83
2023/04/07 13:19:48;;;;;;;;;2.33;1.00;;;;;;;;6334353;22;45193;-81
2023/04/07 13:22:13;;;;;;;;;2.75;1.00;;;;;;;;6334361;22;45273;-83
2023/04/07 13:24:38;;;;;;;;;1.67;1.00;;;;;;;;6332817;22;47112;-83
2023/04/07 13:27:03;;;;;;;;;0.75;0.75;;;;;;;;6334601;22;45284;-83
2023/04/07 13:29:29;;;;;;;;;1.00;1.00;;;;;;;;6334962;22;45453;-81
2023/04/07 13:32:03;;;;;;;;;2.75;1.00;;;;;;;;6332301;22;45591;-82
2023/04/07 13:34:28;;;;;;;;;0.25;0.25;;;;;;;;6335049;22;45378;-83
2023/04/07 13:36:53;;;;;;;;;0.00;0.00;;;;;;;;6333997;22;45370;-82
2023/04/07 13:39:18;;;;;;;;;4.00;1.00;;;;;;;;6336524;22;45437;-83
2023/04/07 13:41:43;;;;;;;;;0.00;0.00;;;;;;;;6335970;22;45231;-84
2023/04/07 13:44:09;;;;;;;;;0.33;0.33;;;;;;;;6335892;22;45291;-83
2023/04/07 13:46:34;;;;;;;;;0.50;0.50;;;;;;;;6335945;22;45308;-83
2023/04/07 13:48:59;;;;;;;;;0.00;0.00;;;;;;;;6336620;22;45358;-83
2023/04/07 13:51:24;;;;;;;;;0.00;0.00;;;;;;;;6335381;22;45302;-83
2023/04/07 13:53:50;;;;;;;;;0.00;0.00;;;;;;;;6335859;22;45292;-84
2023/04/07 13:56:15;;;;;;;;;0.00;0.00;;;;;;;;6335627;22;45382;-82
2023/04/07 13:58:40;;;;;;;;;1.00;0.00;;;;;;;;6336025;22;45314;-84
2023/04/07 14:01:06;;;;;;;;;2.00;0.00;;;;;;;;6336058;22;45377;-83
2023/04/07 14:03:31;;;;;;;;;0.75;0.75;;;;;;;;6335553;22;46396;-82
2023/04/07 14:05:59;;;;;;;;;0.00;0.00;;;;;;;;6336006;22;45363;-83
2023/04/07 14:08:25;;;;;;;;;0.25;0.25;;;;;;;;6335489;22;45351;-82
2023/04/07 14:10:50;;;;;;;;;0.00;0.00;;;;;;;;6335237;22;45379;-82
2023/04/07 14:13:15;;;;;;;;;0.00;0.00;;;;;;;;6335899;22;45354;-82
2023/04/07 14:15:41;;;;;;;;;0.67;0.67;;;;;;;;6335569;22;45414;-82
2023/04/07 14:18:06;;;;;;;;;0.33;0.33;;;;;;;;6335746;22;45465;-83
2023/04/07 14:20:32;;;;;;;;;2.00;1.00;;;;;;;;6333870;22;45603;-83
2023/04/07 14:22:57;;;;;;;;;0.00;0.00;;;;;;;;6335543;22;45544;-82
2023/04/07 14:25:22;;;;;;;;;0.00;0.00;;;;;;;;6336314;22;45347;-83
2023/04/07 14:27:47;;;;;;;;;0.67;0.67;;;;;;;;6335833;22;45321;-82
2023/04/07 14:30:12;;;;;;;;;1.00;0.00;;;;;;;;6335538;22;45336;-83
2023/04/07 14:32:38;;;;;;;;;1.00;0.00;;;;;;;;6334020;22;46877;-83
2023/04/07 14:35:03;;;;;;;;;0.00;0.00;;;;;;;;6335874;22;45331;-81